Time;durP1;ratioP1;P1;durP2;ratioP2;P2;SDS_P1;SDS_P2;PMS_P1;PMS_P2;Temp;Humidity;BMP_temperature;BMP_pressure;BME280_temperature;BME280_humidity;BME280_pressure;Samples;Min_cycle;Max_cycle;Signal;HPM_P1;HPM_P2
2024/03/22 00:00:41;;;;;;;64.00;35.40;;;;;;;7.20;90.20;100382.72;1814129;79;25352;-66
2024/03/22 00:03:09;;;;;;;59.73;36.68;;;;;;;7.22;90.15;100381.89;1814113;79;25596;-65
2024/03/22 00:05:35;;;;;;;60.80;37.10;;;;;;;7.24;90.40;100380.27;1814228;79;25364;-64
2024/03/22 00:08:01;;;;;;;61.40;35.17;;;;;;;7.25;90.33;100379.98;1814101;79;29582;-65
2024/03/22 00:10:27;;;;;;;59.35;33.88;;;;;;;7.28;90.50;100374.56;1814056;79;25527;-65
2024/03/22 00:12:53;;;;;;;58.80;33.80;;;;;;;7.30;90.58;100372.38;1814200;79;25536;-65
2024/03/22 00:15:19;;;;;;;58.58;34.00;;;;;;;7.32;90.75;100374.79;1814153;79;25531;-65
2024/03/22 00:17:45;;;;;;;60.80;34.33;;;;;;;7.33;90.81;100371.03;1814218;79;25597;-64
2024/03/22 00:20:12;;;;;;;60.23;35.13;;;;;;;7.35;90.91;100372.88;1812643;79;27124;-64
2024/03/22 00:22:38;;;;;;;58.78;35.00;;;;;;;7.36;90.98;100365.87;1808662;79;25381;-64
2024/03/22 00:25:06;;;;;;;60.98;35.68;;;;;;;7.39;91.16;100366.66;1808758;79;25414;-64
2024/03/22 00:27:32;;;;;;;59.55;35.43;;;;;;;7.41;91.24;100363.67;1808935;79;25572;-64
2024/03/22 00:29:59;;;;;;;59.42;34.48;;;;;;;7.41;91.54;100368.51;1808775;79;25675;-64
2024/03/22 00:32:25;;;;;;;61.68;36.90;;;;;;;7.42;91.54;100360.70;1808944;79;28149;-65
2024/03/22 00:34:51;;;;;;;62.40;34.90;;;;;;;7.43;92.01;100357.46;1808861;79;25673;-64
2024/03/22 00:37:17;;;;;;;63.83;37.03;;;;;;;7.43;92.15;100358.81;1808863;79;25432;-66
2024/03/22 00:39:44;;;;;;;61.92;36.50;;;;;;;7.44;92.69;100355.83;1808855;79;25546;-65
2024/03/22 00:42:10;;;;;;;62.88;38.00;;;;;;;7.43;92.82;100355.56;1808942;79;25532;-65
2024/03/22 00:44:36;;;;;;;70.00;40.52;;;;;;;7.41;92.78;100354.26;1808994;79;28343;-65
2024/03/22 00:47:03;;;;;;;67.27;39.15;;;;;;;7.41;93.12;100351.02;1808803;79;25429;-65
2024/03/22 00:49:30;;;;;;;62.70;37.45;;;;;;;7.42;93.14;100353.16;1808888;79;25535;-63
2024/03/22 00:51:56;;;;;;;69.03;39.98;;;;;;;7.43;93.34;100350.73;1808818;79;25490;-65
2024/03/22 00:54:23;;;;;;;67.10;39.70;;;;;;;7.43;93.56;100348.83;1808897;79;25584;-64
2024/03/22 00:56:49;;;;;;;67.85;39.53;;;;;;;7.44;93.60;100344.25;1808868;79;27461;-63
2024/03/22 00:59:16;;;;;;;69.50;38.00;;;;;;;7.44;94.00;100348.28;1808823;79;25729;-64
2024/03/22 01:01:43;;;;;;;69.80;36.83;;;;;;;7.44;93.94;100348.28;1808904;79;25590;-64
2024/03/22 01:04:10;;;;;;;76.42;40.55;;;;;;;7.46;94.16;100349.61;1808862;79;26223;-65
2024/03/22 01:06:36;;;;;;;70.12;40.25;;;;;;;7.46;94.24;100350.17;1808915;79;25367;-64
2024/03/22 01:09:03;;;;;;;68.95;40.65;;;;;;;7.46;94.63;100343.44;1808813;79;27498;-65
2024/03/22 01:11:30;;;;;;;67.27;38.73;;;;;;;7.46;94.73;100348.82;1808803;79;25809;-64
2024/03/22 01:13:56;;;;;;;75.10;41.30;;;;;;;7.46;94.94;100350.95;1808924;78;25448;-64
2024/03/22 01:16:24;;;;;;;71.72;41.77;;;;;;;7.48;94.98;100349.33;1808866;79;25636;-65
2024/03/22 01:18:50;;;;;;;72.70;40.52;;;;;;;7.50;95.13;100347.70;1808930;79;25551;-65
2024/03/22 01:21:16;;;;;;;80.03;44.42;;;;;;;7.50;95.23;100342.31;1809495;79;27469;-65
2024/03/22 01:23:42;;;;;;;79.27;43.63;;;;;;;7.51;95.44;100338.52;1810954;78;25781;-65
2024/03/22 01:26:09;;;;;;;75.75;42.15;;;;;;;7.53;95.46;100339.05;1814292;79;25435;-65
2024/03/22 01:28:36;;;;;;;77.47;44.48;;;;;;;7.55;95.55;100340.91;1814271;79;25489;-65
2024/03/22 01:31:03;;;;;;;78.22;42.33;;;;;;;7.56;95.75;100337.11;1814231;79;25600;-65
2024/03/22 01:33:29;;;;;;;74.25;40.55;;;;;;;7.56;95.90;100334.42;1814303;78;27478;-65
2024/03/22 01:35:55;;;;;;;71.12;41.77;;;;;;;7.56;95.93;100331.73;1814204;79;25394;-65
2024/03/22 01:38:21;;;;;;;80.47;43.48;;;;;;;7.56;96.14;100329.04;1814233;79;25346;-65
2024/03/22 01:40:47;;;;;;;74.77;43.68;;;;;;;7.57;96.20;100332.80;1814206;79;25465;-65
2024/03/22 01:43:14;;;;;;;70.75;41.53;;;;;;;7.58;96.37;100329.58;1814369;79;25383;-65
2024/03/22 01:45:41;;;;;;;78.22;44.98;;;;;;;7.59;96.46;100331.95;1814256;79;27463;-65
2024/03/22 01:48:09;;;;;;;75.40;45.00;;;;;;;7.61;96.62;100335.70;1814125;79;25770;-65
2024/03/22 01:50:35;;;;;;;77.30;44.03;;;;;;;7.62;96.67;100338.66;1814239;79;25571;-65
2024/03/22 01:53:01;;;;;;;74.62;44.00;;;;;;;7.64;96.78;100333.80;1814242;78;25629;-65
2024/03/22 01:55:29;;;;;;;76.53;43.25;;;;;;;7.66;96.83;100337.81;1814296;79;25553;-64
2024/03/22 01:57:57;;;;;;;67.35;40.43;;;;;;;7.68;96.86;100328.10;1814264;79;27497;-65
2024/03/22 02:00:24;;;;;;;65.92;41.48;;;;;;;7.70;96.88;100334.00;1814254;79;25434;-65
2024/03/22 02:02:50;;;;;;;79.10;41.63;;;;;;;7.73;96.82;100328.04;1814231;79;25341;-65
2024/03/22 02:05:21;;;;;;;73.45;41.75;;;;;;;7.77;96.71;100325.02;1814264;79;26065;-65
2024/03/22 02:07:48;;;;;;;77.10;43.55;;;;;;;7.80;96.68;100325.00;1814322;79;25428;-65
2024/03/22 02:10:17;;;;;;;75.12;42.83;;;;;;;7.82;96.94;100328.98;1814226;79;28180;-65
2024/03/22 02:12:43;;;;;;;73.30;43.05;;;;;;;7.83;96.96;100325.22;1814151;79;25527;-65
2024/03/22 02:15:10;;;;;;;71.97;41.58;;;;;;;7.84;96.88;100324.66;1814283;79;25559;-65
2024/03/22 02:17:36;;;;;;;73.17;42.50;;;;;;;7.86;96.73;100321.92;1814239;79;25487;-65
2024/03/22 02:20:06;;;;;;;71.85;41.28;;;;;;;7.88;96.84;100318.14;1814221;78;25452;-64
2024/03/22 02:22:32;;;;;;;75.32;43.28;;;;;;;7.90;96.91;100324.86;1814429;79;27487;-65
2024/03/22 02:24:58;;;;;;;71.00;42.70;;;;;;;7.91;97.03;100325.09;1814142;79;25578;-64
2024/03/22 02:27:26;;;;;;;72.70;43.45;;;;;;;7.92;97.00;100326.71;1814266;79;25517;-65
2024/03/22 02:29:52;;;;;;;79.53;42.20;;;;;;;7.93;97.03;100322.91;1814200;79;26097;-65
2024/03/22 02:32:19;;;;;;;73.00;39.38;;;;;;;7.94;97.18;100323.17;1814277;79;25609;-64
2024/03/22 02:34:46;;;;;;;72.30;41.42;;;;;;;7.96;97.21;100321.55;1814284;79;27438;-64
2024/03/22 02:37:12;;;;;;;71.22;39.35;;;;;;;7.98;97.25;100324.74;1814130;79;25514;-64
2024/03/22 02:39:38;;;;;;;71.57;42.15;;;;;;;7.99;97.21;100320.41;1814213;79;25593;-64
2024/03/22 02:42:06;;;;;;;74.70;43.52;;;;;;;8.02;97.25;100317.70;1814206;79;25623;-64
2024/03/22 02:44:33;;;;;;;77.47;44.35;;;;;;;8.03;97.25;100318.73;1814267;79;25403;-65
2024/03/22 02:46:59;;;;;;;79.60;42.33;;;;;;;8.06;97.21;100324.09;1814218;79;27488;-65
2024/03/22 02:49:26;;;;;;;85.30;45.03;;;;;;;8.06;97.33;100314.66;1814126;79;25625;-65
2024/03/22 02:51:52;;;;;;;72.97;42.88;;;;;;;8.09;97.41;100318.66;1814230;79;25395;-65
2024/03/22 02:54:18;;;;;;;83.55;46.63;;;;;;;8.10;97.35;100320.27;1814194;79;25519;-65
2024/03/22 02:56:44;;;;;;;77.05;42.95;;;;;;;8.11;97.50;100321.88;1814227;79;25542;-65
2024/03/22 02:59:10;;;;;;;88.78;46.60;;;;;;;8.11;97.51;100314.59;1814233;79;27506;-65
2024/03/22 03:01:37;;;;;;;79.12;45.78;;;;;;;8.12;97.45;100314.03;1814146;79;25732;-65
2024/03/22 03:04:03;;;;;;;81.63;43.87;;;;;;;8.12;97.43;100308.13;1814224;79;25561;-65
2024/03/22 03:06:30;;;;;;;93.47;47.15;;;;;;;8.13;97.34;100311.61;1814213;79;26567;-63
2024/03/22 03:08:56;;;;;;;99.83;48.83;;;;;;;8.15;97.60;100319.64;1814227;79;25571;-63
2024/03/22 03:11:22;;;;;;;100.27;48.38;;;;;;;8.16;97.52;100317.21;1814142;79;27496;-63
2024/03/22 03:13:48;;;;;;;99.32;47.93;;;;;;;8.17;97.67;100316.13;1814094;79;25555;-64
2024/03/22 03:16:14;;;;;;;96.20;47.23;;;;;;;8.16;97.97;100318.56;1814210;79;25567;-63
2024/03/22 03:18:41;;;;;;;98.75;48.95;;;;;;;8.17;98.06;100316.66;1814146;79;25551;-63
2024/03/22 03:21:08;;;;;;;102.50;49.25;;;;;;;8.17;98.06;100313.96;1810412;78;25541;-63
2024/03/22 03:23:35;;;;;;;96.28;49.60;;;;;;;8.18;97.98;100319.06;1808744;79;28114;-62
2024/03/22 03:26:02;;;;;;;100.22;47.15;;;;;;;8.18;98.00;100325.80;1808573;79;25401;-63
2024/03/22 03:28:29;;;;;;;101.35;48.98;;;;;;;8.17;98.06;100322.87;1808807;79;25508;-64
2024/03/22 03:30:55;;;;;;;100.20;45.48;;;;;;;8.18;97.93;100326.35;1808711;79;25465;-66
2024/03/22 03:33:21;;;;;;;101.80;47.33;;;;;;;8.16;97.95;100315.08;1808788;79;25385;-64
2024/03/22 03:35:47;;;;;;;92.45;41.53;;;;;;;8.15;97.80;100308.07;1808763;79;28106;-64
2024/03/22 03:38:14;;;;;;;97.35;41.58;;;;;;;8.13;97.63;100313.75;1808623;79;25589;-65
2024/03/22 03:40:41;;;;;;;96.95;42.85;;;;;;;8.10;97.57;100317.57;1808697;79;25358;-65
2024/03/22 03:43:07;;;;;;;93.62;40.52;;;;;;;8.08;97.54;100319.77;1808692;79;25482;-65
2024/03/22 03:45:37;;;;;;;89.47;37.95;;;;;;;8.04;97.56;100327.63;1808786;79;25586;-65
2024/03/22 03:48:06;;;;;;;87.33;37.88;;;;;;;8.01;97.61;100319.56;1808810;79;27533;-65
2024/03/22 03:50:32;;;;;;;85.28;40.75;;;;;;;7.99;97.69;100320.97;1808665;79;25424;-64
2024/03/22 03:52:59;;;;;;;82.42;35.10;;;;;;;7.97;97.70;100332.03;1808730;79;25370;-64
2024/03/22 03:55:25;;;;;;;88.67;40.50;;;;;;;7.95;97.72;100323.44;1808677;79;25566;-64
2024/03/22 03:57:51;;;;;;;82.95;38.02;;;;;;;7.94;97.72;100325.08;1808753;79;25428;-63
2024/03/22 04:00:20;;;;;;;79.20;35.78;;;;;;;7.91;97.65;100320.27;1808759;79;27465;-64
2024/03/22 04:02:50;;;;;;;;;;;;;;;7.90;97.68;100322.69;1811364;79;25519;-64
2024/03/22 04:05:16;;;;;;;;;;;;;;;7.87;97.66;100328.13;1811479;78;25360;-64
2024/03/22 04:07:42;;;;;;;86.12;38.33;;;;;;;7.82;97.69;100331.68;1808709;79;25666;-64
2024/03/22 04:10:10;;;;;;;88.85;41.25;;;;;;;7.82;97.80;100344.35;1808704;79;25611;-64
2024/03/22 04:12:36;;;;;;;89.10;40.25;;;;;;;7.79;97.73;100344.38;1808725;79;28015;-65
2024/03/22 04:15:02;;;;;;;83.10;40.23;;;;;;;7.75;97.76;100344.70;1808657;79;25529;-65
2024/03/22 04:17:28;;;;;;;90.22;39.73;;;;;;;7.71;97.66;100350.39;1808734;79;25597;-65
2024/03/22 04:19:54;;;;;;;83.07;40.52;;;;;;;7.68;97.78;100359.06;1808716;79;26189;-64
2024/03/22 04:22:21;;;;;;;86.90;40.85;;;;;;;7.66;97.70;100365.26;1812701;79;25428;-64
2024/03/22 04:24:47;;;;;;;89.10;40.80;;;;;;;7.62;97.69;100366.37;1814189;79;27552;-64
2024/03/22 04:27:13;;;;;;;81.28;38.30;;;;;;;7.58;97.72;100365.36;1814092;79;25754;-65
2024/03/22 04:29:39;;;;;;;89.97;41.28;;;;;;;7.57;97.87;100363.75;1814150;79;25525;-65
2024/03/22 04:32:06;;;;;;;74.90;38.48;;;;;;;7.54;97.96;100360.83;1814120;79;26074;-65
2024/03/22 04:34:32;;;;;;;78.22;39.30;;;;;;;7.52;97.90;100355.73;1814148;79;25383;-64
2024/03/22 04:36:59;;;;;;;77.85;38.28;;;;;;;7.51;97.98;100368.95;1814155;79;27469;-63
2024/03/22 04:39:25;;;;;;;81.30;40.40;;;;;;;7.49;98.10;100368.41;1814055;79;25535;-65
2024/03/22 04:41:51;;;;;;;77.40;39.15;;;;;;;7.50;98.17;100370.58;1814107;79;25396;-65
2024/03/22 04:44:17;;;;;;;90.32;40.80;;;;;;;7.48;98.11;100369.52;1814089;79;25556;-65
2024/03/22 04:46:44;;;;;;;77.15;37.55;;;;;;;7.47;98.17;100367.38;1814204;79;25553;-63
2024/03/22 04:49:10;;;;;;;89.97;39.38;;;;;;;7.48;98.21;100366.83;1814143;79;26494;-64
2024/03/22 04:51:36;;;;;;;80.15;38.75;;;;;;;7.47;98.30;100370.06;1813997;79;25586;-64
2024/03/22 04:54:02;;;;;;;84.47;40.43;;;;;;;7.46;98.38;100373.05;1814150;79;25529;-64
2024/03/22 04:56:28;;;;;;;80.92;39.88;;;;;;;7.46;98.49;100375.73;1814123;79;25527;-64
2024/03/22 04:58:56;;;;;;;82.72;39.80;;;;;;;7.46;98.44;100373.84;1814129;79;25514;-64
2024/03/22 05:01:23;;;;;;;81.30;40.60;;;;;;;7.47;98.54;100380.84;1814146;79;27517;-65
2024/03/22 05:03:50;;;;;;;81.95;40.67;;;;;;;7.47;98.52;100375.97;1814075;79;25607;-64
2024/03/22 05:06:16;;;;;;;83.47;40.00;;;;;;;7.47;98.65;100376.80;1814168;78;25459;-64
2024/03/22 05:08:43;;;;;;;85.85;41.37;;;;;;;7.47;98.61;100375.45;1814122;79;25544;-63
2024/03/22 05:11:09;;;;;;;87.62;41.88;;;;;;;7.47;98.66;100377.32;1814160;79;25619;-64
2024/03/22 05:13:35;;;;;;;86.10;41.83;;;;;;;7.47;98.65;100378.14;1814109;79;27454;-64
2024/03/22 05:16:01;;;;;;;90.28;41.63;;;;;;;7.48;98.88;100382.42;1814102;79;27337;-64
2024/03/22 05:18:28;;;;;;;90.10;40.98;;;;;;;7.48;98.86;100375.69;1814267;79;25575;-64
2024/03/22 05:20:55;;;;;;;88.27;40.75;;;;;;;7.50;98.85;100381.34;1812858;79;25608;-64
2024/03/22 05:23:21;;;;;;;90.60;42.27;;;;;;;7.48;98.93;100383.77;1808957;79;25369;-64
2024/03/22 05:25:47;;;;;;;85.05;40.10;;;;;;;7.52;98.89;100384.55;1808987;78;27980;-63
2024/03/22 05:28:14;;;;;;;91.47;42.03;;;;;;;7.52;98.82;100379.16;1808755;79;25397;-65
2024/03/22 05:30:40;;;;;;;85.97;39.55;;;;;;;7.51;98.80;100381.06;1808915;79;25559;-64
2024/03/22 05:33:06;;;;;;;91.32;41.85;;;;;;;7.52;98.67;100378.61;1808904;79;26131;-64
2024/03/22 05:35:32;;;;;;;89.83;40.98;;;;;;;7.54;98.71;100383.71;1808858;79;25416;-66
2024/03/22 05:37:59;;;;;;;94.42;41.90;;;;;;;7.52;98.82;100379.16;1808874;78;27795;-65
2024/03/22 05:40:25;;;;;;;92.12;42.93;;;;;;;7.53;98.76;100375.39;1808771;79;25699;-65
2024/03/22 05:42:51;;;;;;;88.90;39.50;;;;;;;7.53;99.02;100370.80;1808942;79;25534;-65
2024/03/22 05:45:17;;;;;;;86.17;40.90;;;;;;;7.55;99.11;100374.00;1808873;79;35042;-66
2024/03/22 05:47:44;;;;;;;91.02;41.45;;;;;;;7.57;99.28;100377.76;1808939;79;25396;-65
2024/03/22 05:50:14;;;;;;;86.53;39.80;;;;;;;7.58;99.50;100376.13;1808916;79;27532;-65
2024/03/22 05:52:42;;;;;;;89.28;41.90;;;;;;;7.62;99.39;100377.70;1808838;79;25576;-66
2024/03/22 05:55:08;;;;;;;89.47;41.30;;;;;;;7.63;99.39;100374.73;1808847;79;25546;-65
2024/03/22 05:57:34;;;;;;;92.85;42.65;;;;;;;7.65;99.41;100382.52;1808818;79;25534;-65
2024/03/22 06:00:00;;;;;;;79.45;39.95;;;;;;;7.65;99.24;100381.17;1808902;79;25381;-65
2024/03/22 06:02:27;;;;;;;85.50;40.35;;;;;;;7.66;99.21;100382.76;1808856;79;28173;-65
2024/03/22 06:04:53;;;;;;;85.80;40.98;;;;;;;7.68;99.35;100379.26;1808782;79;25571;-67
2024/03/22 06:07:19;;;;;;;84.15;40.65;;;;;;;7.71;99.47;100379.21;1808801;79;29982;-65
2024/03/22 06:09:48;;;;;;;86.42;38.95;;;;;;;7.74;99.79;100371.91;1808790;79;25455;-65
2024/03/22 06:12:16;;;;;;;80.07;37.33;;;;;;;7.77;99.67;100370.00;1808078;79;25747;-66
2024/03/22 06:14:44;;;;;;;81.32;36.83;;;;;;;7.81;99.58;100369.66;1806693;79;27507;-65
2024/03/22 06:17:12;;;;;;;87.10;38.65;;;;;;;7.85;100.00;100363.98;1807334;79;25928;-65
2024/03/22 06:19:40;;;;;;;88.25;40.23;;;;;;;7.92;100.00;100362.28;1807557;79;25693;-65
2024/03/22 06:22:06;;;;;;;85.87;38.98;;;;;;;7.95;99.78;100362.50;1807677;78;25661;-65
2024/03/22 06:24:32;;;;;;;80.97;39.95;;;;;;;8.00;99.72;100357.05;1807581;79;25614;-65
2024/03/22 06:26:58;;;;;;;77.70;35.80;;;;;;;8.04;99.49;100357.27;1807754;79;27409;-65
2024/03/22 06:29:25;;;;;;;77.37;37.60;;;;;;;8.03;98.95;100367.77;1808476;79;25410;-65
2024/03/22 06:31:52;;;;;;;83.00;37.73;;;;;;;8.03;99.26;100365.87;1808791;79;25418;-65
2024/03/22 06:34:19;;;;;;;83.35;39.03;;;;;;;8.06;99.41;100369.09;1808797;79;25524;-65
2024/03/22 06:36:47;;;;;;;81.95;35.90;;;;;;;8.11;99.57;100378.45;1808834;79;25536;-65
2024/03/22 06:39:14;;;;;;;75.55;35.45;;;;;;;8.12;99.21;100367.39;1808846;79;28410;-66
2024/03/22 06:41:46;;;;;;;69.85;32.95;;;;;;;8.13;99.08;100370.88;1808749;79;25360;-66
2024/03/22 06:44:13;;;;;;;71.70;33.50;;;;;;;8.16;98.77;100372.45;1808859;79;25400;-66
2024/03/22 06:46:41;;;;;;;74.42;36.65;;;;;;;8.18;98.79;100376.20;1808795;79;26209;-66
2024/03/22 06:49:08;;;;;;;81.65;37.85;;;;;;;8.18;98.54;100376.99;1808828;79;25218;-67
2024/03/22 06:51:34;;;;;;;79.30;37.67;;;;;;;8.19;98.63;100384.55;1808749;79;29727;-66
2024/03/22 06:54:00;;;;;;;75.20;38.10;;;;;;;8.21;98.91;100378.32;1808727;79;25383;-66
2024/03/22 06:56:30;;;;;;;75.75;37.03;;;;;;;8.23;98.90;100378.27;1808842;78;25574;-65
2024/03/22 06:58:57;;;;;;;74.53;38.00;;;;;;;8.24;98.65;100377.74;1808711;79;25582;-65
2024/03/22 07:01:23;;;;;;;70.92;37.28;;;;;;;8.26;98.79;100378.25;1808821;79;25601;-66
2024/03/22 07:03:49;;;;;;;73.40;36.65;;;;;;;8.27;98.71;100379.04;1808769;79;27524;-66
2024/03/22 07:06:16;;;;;;;67.22;34.88;;;;;;;8.28;98.86;100380.66;1808729;79;25586;-65
2024/03/22 07:08:42;;;;;;;68.80;35.33;;;;;;;8.32;98.99;100380.31;1808824;79;25368;-66
2024/03/22 07:11:09;;;;;;;74.40;35.48;;;;;;;8.35;99.49;100371.66;1808712;79;25991;-66
2024/03/22 07:13:35;;;;;;;66.35;33.30;;;;;;;8.39;99.61;100377.52;1808841;79;25360;-65
2024/03/22 07:16:04;;;;;;;66.57;33.28;;;;;;;8.43;99.08;100377.77;1808815;79;29636;-65
2024/03/22 07:18:30;;;;;;;66.02;32.03;;;;;;;8.47;98.72;100373.94;1809001;79;25429;-66
2024/03/22 07:21:01;;;;;;;62.53;32.13;;;;;;;8.52;99.33;100371.95;1808812;79;25582;-65
2024/03/22 07:23:25;;;;;;;66.82;32.83;;;;;;;8.58;99.64;100372.14;1808447;78;25619;-65
2024/03/22 07:25:52;;;;;;;64.72;32.90;;;;;;;8.62;98.46;100372.36;1813640;79;25556;-64
2024/03/22 07:28:18;;;;;;;63.85;32.83;;;;;;;8.66;98.67;100368.52;1814161;79;28119;-66
2024/03/22 07:30:44;;;;;;;63.08;33.08;;;;;;;8.71;98.97;100362.48;1814106;79;25522;-66
2024/03/22 07:33:16;;;;;;;64.37;31.55;;;;;;;8.73;98.16;100362.98;1814242;79;25383;-65
2024/03/22 07:35:42;;;;;;;62.88;32.45;;;;;;;8.73;97.32;100362.20;1814222;79;25531;-65
2024/03/22 07:38:10;;;;;;;57.25;30.48;;;;;;;8.74;97.28;100365.95;1814202;79;25629;-65
2024/03/22 07:40:37;;;;;;;55.75;30.62;;;;;;;8.76;97.44;100364.31;1814233;79;28206;-65
2024/03/22 07:43:08;;;;;;;59.75;31.45;;;;;;;8.79;97.43;100361.03;1814112;79;25864;-65
2024/03/22 07:45:36;;;;;;;57.58;29.25;;;;;;;8.83;97.39;100361.23;1814348;79;25428;-64
2024/03/22 07:48:04;;;;;;;55.33;28.50;;;;;;;8.85;96.80;100367.13;1814116;79;25575;-65
2024/03/22 07:50:31;;;;;;;54.65;29.37;;;;;;;8.85;96.71;100364.44;1814439;79;25402;-65
2024/03/22 07:52:57;;;;;;;52.90;28.42;;;;;;;8.88;96.77;100363.85;1814184;79;28169;-64
2024/03/22 07:55:24;;;;;;;56.08;29.30;;;;;;;8.92;97.16;100358.92;1814089;79;25762;-65
2024/03/22 07:57:51;;;;;;;53.17;27.85;;;;;;;8.95;96.81;100363.70;1814179;79;25405;-64
2024/03/22 08:00:19;;;;;;;51.10;27.22;;;;;;;8.96;96.31;100361.27;1814122;79;25431;-65
2024/03/22 08:02:45;;;;;;;50.40;25.95;;;;;;;8.95;95.58;100364.27;1814219;79;25449;-65
2024/03/22 08:05:12;;;;;;;58.38;27.60;;;;;;;8.90;95.11;100358.39;1814210;79;27584;-65
2024/03/22 08:07:38;;;;;;;51.58;25.65;;;;;;;8.86;94.55;100363.35;1814089;79;25774;-65
2024/03/22 08:10:07;;;;;;;57.05;29.02;;;;;;;8.83;94.82;100359.33;1814259;79;25443;-65
2024/03/22 08:12:34;;;;;;;52.13;27.22;;;;;;;8.83;95.06;100359.89;1814255;79;25481;-65
2024/03/22 08:15:00;;;;;;;52.38;28.77;;;;;;;8.82;94.71;100357.75;1814206;79;25593;-66
2024/03/22 08:17:28;;;;;;;55.55;28.65;;;;;;;8.81;94.60;100352.65;1814213;79;28092;-66
2024/03/22 08:19:55;;;;;;;58.85;29.32;;;;;;;8.82;94.77;100354.23;1814095;79;25535;-66
2024/03/22 08:22:21;;;;;;;53.92;27.58;;;;;;;8.85;95.67;100353.09;1811678;79;25447;-65
2024/03/22 08:24:48;;;;;;;52.25;28.52;;;;;;;8.88;94.82;100353.06;1806273;79;25463;-66
2024/03/22 08:27:15;;;;;;;49.03;27.15;;;;;;;8.87;94.89;100348.75;1806260;79;25437;-65
2024/03/22 08:29:41;;;;;;;50.92;27.30;;;;;;;8.90;94.51;100350.86;1807936;79;27493;-65
2024/03/22 08:32:09;;;;;;;53.20;28.07;;;;;;;8.93;94.92;100348.92;1808597;79;27375;-65
2024/03/22 08:34:36;;;;;;;52.05;27.40;;;;;;;8.94;94.75;100346.49;1808771;79;25488;-66
2024/03/22 08:37:04;;;;;;;51.37;26.82;;;;;;;8.97;94.95;100351.27;1808743;79;25386;-66
2024/03/22 08:39:31;;;;;;;47.80;24.45;;;;;;;8.97;94.65;100348.05;1808853;79;25522;-66
2024/03/22 08:41:58;;;;;;;49.75;25.10;;;;;;;9.00;94.51;100343.94;1808735;79;28244;-66
2024/03/22 08:44:25;;;;;;;46.83;25.62;;;;;;;8.99;94.13;100353.15;1808706;78;25380;-65
2024/03/22 08:46:51;;;;;;;47.80;25.02;;;;;;;9.02;94.05;100354.44;1808712;79;25586;-66
2024/03/22 08:49:19;;;;;;;45.40;25.62;;;;;;;9.04;94.37;100354.41;1808709;79;26180;-66
2024/03/22 08:51:48;;;;;;;44.98;25.25;;;;;;;9.06;93.81;100345.98;1808888;79;25634;-66
2024/03/22 08:54:15;;;;;;;49.27;25.88;;;;;;;9.05;93.21;100349.80;1809172;79;27693;-65
2024/03/22 08:56:41;;;;;;;50.83;27.55;;;;;;;9.02;92.99;100347.14;1808821;79;25382;-66
2024/03/22 08:59:10;;;;;;;48.00;26.80;;;;;;;9.04;93.02;100349.02;1808882;78;25487;-64
2024/03/22 09:01:37;;;;;;;46.77;26.52;;;;;;;9.01;92.38;100346.91;1808855;79;25506;-65
2024/03/22 09:04:04;;;;;;;50.15;27.35;;;;;;;8.99;92.49;100353.15;1808895;79;25380;-65
2024/03/22 09:06:31;;;;;;;47.73;27.20;;;;;;;8.98;92.75;100348.84;1808914;78;27454;-66
2024/03/22 09:08:57;;;;;;;54.55;28.42;;;;;;;8.98;92.85;100345.58;1808823;79;25914;-65
2024/03/22 09:11:25;;;;;;;52.17;28.98;;;;;;;8.98;92.92;100350.98;1808952;79;25579;-65
2024/03/22 09:13:53;;;;;;;52.13;29.63;;;;;;;9.01;93.08;100343.38;1797830;79;25567;-66
2024/03/22 09:16:24;;;;;;;50.70;28.42;;;;;;;9.08;94.02;100342.47;1808959;79;25546;-66
2024/03/22 09:18:50;;;;;;;81.02;50.85;;;;;;;9.11;93.41;100345.92;1808981;79;29646;-67
2024/03/22 09:21:17;;;;;;;110.42;67.62;;;;;;;9.11;92.84;100341.87;1809011;79;25454;-65
2024/03/22 09:23:43;;;;;;;65.57;38.53;;;;;;;9.08;92.48;100341.13;1809162;79;25560;-66
2024/03/22 09:26:09;;;;;;;50.95;29.37;;;;;;;9.08;92.81;100343.27;1812878;79;25608;-65
2024/03/22 09:28:36;;;;;;;51.77;28.17;;;;;;;9.12;92.88;100338.86;1814477;79;25502;-65
2024/03/22 09:31:07;;;;;;;54.03;27.67;;;;;;;9.14;92.40;100338.03;1814324;79;28144;-65
2024/03/22 09:33:34;;;;;;;54.00;29.07;;;;;;;9.14;92.01;100340.73;1814151;79;25369;-66
2024/03/22 09:36:03;;;;;;;52.25;28.85;;;;;;;9.14;92.09;100331.81;1813471;79;25634;-66
2024/03/22 09:38:29;;;;;;;50.83;28.50;;;;;;;9.18;92.22;100332.02;1814261;79;25987;-67
2024/03/22 09:40:56;;;;;;;48.92;28.45;;;;;;;9.19;92.11;100334.98;1814327;79;25531;-67
2024/03/22 09:43:23;;;;;;;51.05;28.17;;;;;;;9.20;92.25;100334.69;1814320;79;27529;-67
2024/03/22 09:45:50;;;;;;;49.58;27.58;;;;;;;9.24;92.48;100324.87;1814248;79;25588;-67
2024/03/22 09:48:19;;;;;;;44.80;26.25;;;;;;;9.26;91.94;100328.10;1814360;79;25529;-66
2024/03/22 09:50:49;;;;;;;45.55;25.92;;;;;;;9.30;91.63;100333.14;1814125;78;27736;-67
2024/03/22 09:53:22;;;;;;;45.00;26.33;;;;;;;9.33;91.75;100324.45;1814417;78;25451;-66
2024/03/22 09:55:51;;;;;;;46.63;25.65;;;;;;;9.37;91.56;100320.59;1814334;79;27520;-66
2024/03/22 09:58:18;;;;;;;;;;;;;;;9.40;91.40;100320.53;1817148;79;25651;-64
2024/03/22 10:00:44;;;;;;;59.27;38.70;;;;;;;9.37;90.13;100317.11;1814737;79;30076;-65
2024/03/22 10:03:11;;;;;;;41.30;23.30;;;;;;;9.37;90.70;100315.20;1814560;79;27663;-63
2024/03/22 10:05:37;;;;;;;37.75;22.20;;;;;;;9.40;90.68;100311.91;1814442;79;25538;-66
2024/03/22 10:08:09;;;;;;;39.73;22.87;;;;;;;9.43;90.68;100313.19;1814458;79;28053;-68
2024/03/22 10:10:34;;;;;;;;;;;;;;;9.50;90.83;100313.05;1816378;78;25878;-65
2024/03/22 10:13:04;;;;;;;36.33;21.97;;;;;;;9.54;90.43;100317.30;1814287;78;25600;-66
2024/03/22 10:15:30;;;;;;;38.55;21.97;;;;;;;9.52;89.58;100310.84;1814285;79;25459;-66
2024/03/22 10:17:58;;;;;;;36.70;22.22;;;;;;;9.57;89.87;100309.13;1814320;79;25523;-67
2024/03/22 10:20:25;;;;;;;38.90;22.98;;;;;;;9.60;89.81;100300.43;1814296;79;27498;-65
2024/03/22 10:22:59;;;;;;;37.95;22.20;;;;;;;9.63;89.35;100295.78;1814085;79;25601;-65
2024/03/22 10:25:27;;;;;;;36.23;21.60;;;;;;;9.61;89.24;100291.23;1814254;79;25521;-66
2024/03/22 10:27:56;;;;;;;38.50;22.52;;;;;;;9.60;88.16;100289.06;1814222;79;26060;-66
2024/03/22 10:30:25;;;;;;;36.00;22.45;;;;;;;9.56;88.03;100285.95;1814392;79;25547;-66
2024/03/22 10:32:52;;;;;;;41.28;24.65;;;;;;;9.48;87.70;100286.91;1814169;79;27502;-66
2024/03/22 10:35:19;;;;;;;40.98;24.52;;;;;;;9.40;87.54;100280.86;1802936;79;25396;-66
2024/03/22 10:37:45;;;;;;;45.10;25.05;;;;;;;9.35;88.14;100280.41;1814278;78;25547;-66
2024/03/22 10:40:14;;;;;;;40.80;25.72;;;;;;;9.34;88.08;100276.66;1814175;79;25555;-65
2024/03/22 10:42:43;;;;;;;42.17;24.60;;;;;;;9.33;88.67;100279.09;1814427;79;25530;-66
2024/03/22 10:45:12;;;;;;;;;;;;;;;9.29;88.50;100280.24;1817004;79;28131;-65
2024/03/22 10:47:40;;;;;;;42.30;24.15;;;;;;;9.26;88.49;100278.70;1814461;79;25767;-65
2024/03/22 10:50:10;;;;;;;39.15;23.95;;;;;;;9.23;88.49;100283.34;1814247;79;25364;-67
2024/03/22 10:52:41;;;;;;;44.18;23.25;;;;;;;9.18;88.42;100283.44;1814181;79;26843;-66
2024/03/22 10:55:12;;;;;;;39.20;23.52;;;;;;;9.16;88.50;100281.06;1811552;78;25520;-66
2024/03/22 10:57:39;;;;;;;35.78;22.37;;;;;;;9.08;88.48;100275.80;1814258;79;27438;-67
2024/03/22 11:00:10;;;;;;;35.73;22.10;;;;;;;9.02;88.55;100274.84;1814108;79;25583;-65
2024/03/22 11:02:38;;;;;;;44.67;23.00;;;;;;;8.99;88.77;100276.26;1814191;79;25581;-66
2024/03/22 11:05:07;;;;;;;36.63;22.22;;;;;;;8.93;88.82;100268.00;1814173;79;25519;-65
2024/03/22 11:07:35;;;;;;;37.70;21.82;;;;;;;8.93;89.38;100264.74;1814403;79;25408;-65
2024/03/22 11:10:06;;;;;;;34.33;21.00;;;;;;;8.95;89.96;100266.59;1814202;79;27517;-66
2024/03/22 11:12:33;;;;;;;30.35;19.65;;;;;;;8.97;90.18;100264.94;1814105;79;25977;-65
2024/03/22 11:15:00;;;;;;;33.30;21.07;;;;;;;9.02;90.61;100255.96;1814527;79;25577;-66
2024/03/22 11:17:26;;;;;;;32.55;20.23;;;;;;;9.04;90.52;100255.11;1814212;79;25423;-66